sensor_id;sensor_type;location;lat;lon;timestamp;pressure;altitude;pressure_sealevel;temperature;humidity
75513;BME280;64090;49.770;18.760;2024-01-30T00:00:48;99445.84;;;1.42;72.42
75513;BME280;64090;49.770;18.760;2024-01-30T00:04:11;99440.75;;;1.38;71.99
75513;BME280;64090;49.770;18.760;2024-01-30T00:07:14;99443.01;;;1.38;72.01
75513;BME280;64090;49.770;18.760;2024-01-30T00:10:17;99442.33;;;1.38;72.13
75513;BME280;64090;49.770;18.760;2024-01-30T00:13:20;99437.12;;;1.35;72.19
75513;BME280;64090;49.770;18.760;2024-01-30T00:16:24;99434.29;;;1.33;72.22
75513;BME280;64090;49.770;18.760;2024-01-30T00:19:28;99429.64;;;1.29;71.89
75513;BME280;64090;49.770;18.760;2024-01-30T00:22:31;99428.38;;;1.27;72.21
75513;BME280;64090;49.770;18.760;2024-01-30T00:25:34;99429.13;;;1.26;72.20
75513;BME280;64090;49.770;18.760;2024-01-30T00:28:38;99429.41;;;1.24;72.44
75513;BME280;64090;49.770;18.760;2024-01-30T00:31:41;99422.59;;;1.19;72.59
75513;BME280;64090;49.770;18.760;2024-01-30T00:34:44;99424.78;;;1.15;71.97
75513;BME280;64090;49.770;18.760;2024-01-30T00:37:47;99425.71;;;1.20;72.13
75513;BME280;64090;49.770;18.760;2024-01-30T00:40:50;99429.20;;;1.22;72.25
75513;BME280;64090;49.770;18.760;2024-01-30T00:43:53;99425.15;;;1.20;72.31
75513;BME280;64090;49.770;18.760;2024-01-30T00:46:55;99421.81;;;1.18;72.24
75513;BME280;64090;49.770;18.760;2024-01-30T00:49:58;99422.77;;;1.19;71.59
75513;BME280;64090;49.770;18.760;2024-01-30T00:53:01;99421.46;;;1.23;71.79
75513;BME280;64090;49.770;18.760;2024-01-30T00:56:04;99420.02;;;1.21;71.57
75513;BME280;64090;49.770;18.760;2024-01-30T00:59:07;99415.09;;;1.22;71.10
75513;BME280;64090;49.770;18.760;2024-01-30T01:02:10;99421.00;;;1.27;71.02
75513;BME280;64090;49.770;18.760;2024-01-30T01:05:13;99419.35;;;1.26;71.56
75513;BME280;64090;49.770;18.760;2024-01-30T01:08:16;99416.39;;;1.21;71.55
75513;BME280;64090;49.770;18.760;2024-01-30T01:11:18;99414.74;;;1.14;71.82
75513;BME280;64090;49.770;18.760;2024-01-30T01:14:21;99413.35;;;1.06;72.03
75513;BME280;64090;49.770;18.760;2024-01-30T01:17:24;99412.74;;;1.05;70.80
75513;BME280;64090;49.770;18.760;2024-01-30T01:20:27;99410.38;;;1.12;71.15
75513;BME280;64090;49.770;18.760;2024-01-30T01:23:30;99405.08;;;1.07;71.24
75513;BME280;64090;49.770;18.760;2024-01-30T01:26:33;99404.31;;;1.06;71.63
75513;BME280;64090;49.770;18.760;2024-01-30T01:29:37;99407.77;;;1.06;71.36
75513;BME280;64090;49.770;18.760;2024-01-30T01:32:40;99407.00;;;1.07;71.63
75513;BME280;64090;49.770;18.760;2024-01-30T01:35:49;99400.73;;;1.05;71.73
75513;BME280;64090;49.770;18.760;2024-01-30T01:38:52;99395.52;;;1.02;71.72
75513;BME280;64090;49.770;18.760;2024-01-30T01:41:55;99397.69;;;1.00;72.02
75513;BME280;64090;49.770;18.760;2024-01-30T01:44:58;99394.19;;;0.95;72.04
75513;BME280;64090;49.770;18.760;2024-01-30T01:48:01;99389.15;;;0.90;72.39
75513;BME280;64090;49.770;18.760;2024-01-30T01:51:04;99382.67;;;0.84;72.32
75513;BME280;64090;49.770;18.760;2024-01-30T01:54:08;99376.55;;;0.85;72.18
75513;BME280;64090;49.770;18.760;2024-01-30T01:57:11;99374.77;;;0.83;72.21
75513;BME280;64090;49.770;18.760;2024-01-30T02:00:14;99370.05;;;0.78;72.16
75513;BME280;64090;49.770;18.760;2024-01-30T02:03:18;99370.46;;;0.69;72.68
75513;BME280;64090;49.770;18.760;2024-01-30T02:06:24;99371.30;;;0.62;72.77
75513;BME280;64090;49.770;18.760;2024-01-30T02:09:27;99372.34;;;0.54;73.01
75513;BME280;64090;49.770;18.760;2024-01-30T02:12:30;99368.42;;;0.50;73.22
75513;BME280;64090;49.770;18.760;2024-01-30T02:15:33;99365.02;;;0.51;72.96
75513;BME280;64090;49.770;18.760;2024-01-30T02:18:36;99356.67;;;0.53;73.10
75513;BME280;64090;49.770;18.760;2024-01-30T02:21:45;99356.81;;;0.54;73.08
75513;BME280;64090;49.770;18.760;2024-01-30T02:24:49;99355.85;;;0.58;72.67
75513;BME280;64090;49.770;18.760;2024-01-30T02:27:52;99358.12;;;0.63;72.87
75513;BME280;64090;49.770;18.760;2024-01-30T02:30:55;99357.66;;;0.65;73.09
75513;BME280;64090;49.770;18.760;2024-01-30T02:33:57;99356.41;;;0.65;72.90
75513;BME280;64090;49.770;18.760;2024-01-30T02:37:00;99353.80;;;0.62;72.93
75513;BME280;64090;49.770;18.760;2024-01-30T02:40:04;99355.98;;;0.56;73.06
75513;BME280;64090;49.770;18.760;2024-01-30T02:43:07;99361.61;;;0.45;73.08
75513;BME280;64090;49.770;18.760;2024-01-30T02:46:10;99356.56;;;0.31;73.36
75513;BME280;64090;49.770;18.760;2024-01-30T02:49:13;99358.73;;;0.22;73.52
75513;BME280;64090;49.770;18.760;2024-01-30T02:52:16;99359.83;;;0.21;73.69
75513;BME280;64090;49.770;18.760;2024-01-30T02:55:19;99361.56;;;0.21;73.48
75513;BME280;64090;49.770;18.760;2024-01-30T02:58:22;99360.69;;;0.21;73.71
75513;BME280;64090;49.770;18.760;2024-01-30T03:01:27;99361.35;;;0.25;73.68
75513;BME280;64090;49.770;18.760;2024-01-30T03:05:03;99363.73;;;0.23;73.49
75513;BME280;64090;49.770;18.760;2024-01-30T03:08:06;99360.41;;;0.20;73.45
75513;BME280;64090;49.770;18.760;2024-01-30T03:11:09;99354.49;;;0.20;73.43
75513;BME280;64090;49.770;18.760;2024-01-30T03:14:12;99354.67;;;0.20;73.30
75513;BME280;64090;49.770;18.760;2024-01-30T03:17:15;99351.12;;;0.21;73.26
75513;BME280;64090;49.770;18.760;2024-01-30T03:20:18;99349.39;;;0.29;72.91
75513;BME280;64090;49.770;18.760;2024-01-30T03:23:21;99352.91;;;0.36;73.11
75513;BME280;64090;49.770;18.760;2024-01-30T03:26:24;99354.04;;;0.40;72.66
75513;BME280;64090;49.770;18.760;2024-01-30T03:29:27;99353.01;;;0.43;72.71
75513;BME280;64090;49.770;18.760;2024-01-30T03:32:30;99349.34;;;0.48;72.39
75513;BME280;64090;49.770;18.760;2024-01-30T03:35:33;99351.97;;;0.53;72.34
75513;BME280;64090;49.770;18.760;2024-01-30T03:38:36;99353.84;;;0.57;72.30
75513;BME280;64090;49.770;18.760;2024-01-30T03:41:42;99349.34;;;0.61;71.66
75513;BME280;64090;49.770;18.760;2024-01-30T03:44:45;99344.89;;;0.65;71.60
75513;BME280;64090;49.770;18.760;2024-01-30T03:47:48;99345.48;;;0.67;71.76
75513;BME280;64090;49.770;18.760;2024-01-30T03:50:51;99340.89;;;0.65;71.97
75513;BME280;64090;49.770;18.760;2024-01-30T03:53:53;99343.38;;;0.62;71.94
75513;BME280;64090;49.770;18.760;2024-01-30T03:56:56;99346.60;;;0.60;71.93
75513;BME280;64090;49.770;18.760;2024-01-30T03:59:59;99347.17;;;0.62;71.95
75513;BME280;64090;49.770;18.760;2024-01-30T04:03:04;99351.39;;;0.59;72.18
75513;BME280;64090;49.770;18.760;2024-01-30T04:06:08;99351.80;;;0.53;72.01
75513;BME280;64090;49.770;18.760;2024-01-30T04:09:12;99352.73;;;0.50;72.26
75513;BME280;64090;49.770;18.760;2024-01-30T04:12:15;99350.30;;;0.47;72.49
75513;BME280;64090;49.770;18.760;2024-01-30T04:15:19;99352.09;;;0.43;72.52
75513;BME280;64090;49.770;18.760;2024-01-30T04:18:23;99353.59;;;0.39;72.67
75513;BME280;64090;49.770;18.760;2024-01-30T04:21:26;99354.91;;;0.35;72.92
75513;BME280;64090;49.770;18.760;2024-01-30T04:24:28;99354.88;;;0.38;72.88
75513;BME280;64090;49.770;18.760;2024-01-30T04:27:34;99354.57;;;0.37;73.11
75513;BME280;64090;49.770;18.760;2024-01-30T04:30:37;99352.48;;;0.32;73.36
75513;BME280;64090;49.770;18.760;2024-01-30T04:33:40;99354.16;;;0.28;73.31
75513;BME280;64090;49.770;18.760;2024-01-30T04:36:44;99353.56;;;0.26;73.23
75513;BME280;64090;49.770;18.760;2024-01-30T04:39:48;99356.64;;;0.27;73.26
75513;BME280;64090;49.770;18.760;2024-01-30T04:42:51;99358.61;;;0.29;73.46
75513;BME280;64090;49.770;18.760;2024-01-30T04:45:54;99358.89;;;0.30;73.32
75513;BME280;64090;49.770;18.760;2024-01-30T04:48:56;99357.24;;;0.31;73.18
75513;BME280;64090;49.770;18.760;2024-01-30T04:51:59;99358.65;;;0.36;72.84
75513;BME280;64090;49.770;18.760;2024-01-30T04:55:03;99361.55;;;0.37;72.80
75513;BME280;64090;49.770;18.760;2024-01-30T04:58:06;99356.75;;;0.41;72.71
75513;BME280;64090;49.770;18.760;2024-01-30T05:01:09;99358.37;;;0.46;72.54
75513;BME280;64090;49.770;18.760;2024-01-30T05:04:12;99358.81;;;0.48;72.40
75513;BME280;64090;49.770;18.760;2024-01-30T05:07:19;99353.92;;;0.48;72.25
75513;BME280;64090;49.770;18.760;2024-01-30T05:10:22;99352.63;;;0.49;72.36
75513;BME280;64090;49.770;18.760;2024-01-30T05:13:25;99352.27;;;0.46;72.25
75513;BME280;64090;49.770;18.760;2024-01-30T05:16:28;99351.57;;;0.46;72.36
75513;BME280;64090;49.770;18.760;2024-01-30T05:19:31;99357.69;;;0.43;72.09
75513;BME280;64090;49.770;18.760;2024-01-30T05:22:34;99355.88;;;0.41;72.12
75513;BME280;64090;49.770;18.760;2024-01-30T05:25:37;99355.58;;;0.41;72.34
75513;BME280;64090;49.770;18.760;2024-01-30T05:28:39;99348.70;;;0.39;72.26
75513;BME280;64090;49.770;18.760;2024-01-30T05:31:42;99352.13;;;0.35;72.37
75513;BME280;64090;49.770;18.760;2024-01-30T05:34:45;99353.02;;;0.34;72.10
75513;BME280;64090;49.770;18.760;2024-01-30T05:37:48;99352.77;;;0.41;71.65
75513;BME280;64090;49.770;18.760;2024-01-30T05:40:52;99350.17;;;0.41;71.94
75513;BME280;64090;49.770;18.760;2024-01-30T05:43:55;99347.66;;;0.41;71.51
75513;BME280;64090;49.770;18.760;2024-01-30T05:46:58;99347.70;;;0.41;71.72
75513;BME280;64090;49.770;18.760;2024-01-30T05:50:01;99349.63;;;0.38;71.39
75513;BME280;64090;49.770;18.760;2024-01-30T05:53:04;99347.34;;;0.36;71.43
75513;BME280;64090;49.770;18.760;2024-01-30T05:56:06;99340.48;;;0.37;71.66
75513;BME280;64090;49.770;18.760;2024-01-30T05:59:09;99344.95;;;0.35;71.52
75513;BME280;64090;49.770;18.760;2024-01-30T06:02:13;99345.29;;;0.35;71.43
75513;BME280;64090;49.770;18.760;2024-01-30T06:05:16;99342.83;;;0.33;71.71
75513;BME280;64090;49.770;18.760;2024-01-30T06:08:19;99345.30;;;0.33;71.32
75513;BME280;64090;49.770;18.760;2024-01-30T06:11:22;99345.31;;;0.38;71.14
75513;BME280;64090;49.770;18.760;2024-01-30T06:14:25;99345.72;;;0.40;71.30
75513;BME280;64090;49.770;18.760;2024-01-30T06:17:28;99351.04;;;0.41;71.36
75513;BME280;64090;49.770;18.760;2024-01-30T06:20:31;99352.20;;;0.45;71.34
75513;BME280;64090;49.770;18.760;2024-01-30T06:23:34;99352.70;;;0.50;71.04
75513;BME280;64090;49.770;18.760;2024-01-30T06:26:37;99356.98;;;0.51;71.60
75513;BME280;64090;49.770;18.760;2024-01-30T06:29:40;99348.80;;;0.49;71.43
75513;BME280;64090;49.770;18.760;2024-01-30T06:32:43;99352.80;;;0.49;71.29
75513;BME280;64090;49.770;18.760;2024-01-30T06:35:46;99358.54;;;0.46;71.47
75513;BME280;64090;49.770;18.760;2024-01-30T06:38:49;99359.21;;;0.44;71.38
75513;BME280;64090;49.770;18.760;2024-01-30T06:41:52;99356.55;;;0.42;71.71
75513;BME280;64090;49.770;18.760;2024-01-30T06:44:55;99354.04;;;0.40;71.81
75513;BME280;64090;49.770;18.760;2024-01-30T06:47:58;99359.05;;;0.46;71.63
75513;BME280;64090;49.770;18.760;2024-01-30T06:51:01;99359.77;;;0.54;71.11
75513;BME280;64090;49.770;18.760;2024-01-30T06:54:04;99355.27;;;0.69;71.12
75513;BME280;64090;49.770;18.760;2024-01-30T06:57:07;99354.45;;;0.84;71.05
75513;BME280;64090;49.770;18.760;2024-01-30T07:00:14;99359.60;;;0.93;70.85
75513;BME280;64090;49.770;18.760;2024-01-30T07:03:18;99363.05;;;1.04;71.05
75513;BME280;64090;49.770;18.760;2024-01-30T07:06:21;99367.83;;;1.14;70.83
75513;BME280;64090;49.770;18.760;2024-01-30T07:09:25;99366.05;;;1.24;70.61
75513;BME280;64090;49.770;18.760;2024-01-30T07:12:27;99364.73;;;1.38;69.91
75513;BME280;64090;49.770;18.760;2024-01-30T07:15:30;99368.86;;;1.54;70.23
75513;BME280;64090;49.770;18.760;2024-01-30T07:18:33;99370.41;;;1.67;70.17
75513;BME280;64090;49.770;18.760;2024-01-30T07:21:36;99374.94;;;1.79;69.63
75513;BME280;64090;49.770;18.760;2024-01-30T07:24:43;99377.20;;;1.92;69.36
75513;BME280;64090;49.770;18.760;2024-01-30T07:27:53;99374.95;;;2.01;69.51
75513;BME280;64090;49.770;18.760;2024-01-30T07:30:56;99376.20;;;2.11;69.30
75513;BME280;64090;49.770;18.760;2024-01-30T07:33:59;99376.19;;;2.18;69.44
75513;BME280;64090;49.770;18.760;2024-01-30T07:37:02;99371.17;;;2.25;68.91
75513;BME280;64090;49.770;18.760;2024-01-30T07:40:05;99367.14;;;2.32;68.61
75513;BME280;64090;49.770;18.760;2024-01-30T07:43:09;99363.61;;;2.40;69.03
75513;BME280;64090;49.770;18.760;2024-01-30T07:46:13;99362.81;;;2.48;68.63
75513;BME280;64090;49.770;18.760;2024-01-30T07:49:16;99367.04;;;2.55;68.66
75513;BME280;64090;49.770;18.760;2024-01-30T07:52:19;99361.02;;;2.63;68.82
75513;BME280;64090;49.770;18.760;2024-01-30T07:55:22;99362.40;;;2.70;68.82
75513;BME280;64090;49.770;18.760;2024-01-30T07:58:27;99364.98;;;2.78;68.48
75513;BME280;64090;49.770;18.760;2024-01-30T08:01:30;99364.23;;;2.85;68.78
75513;BME280;64090;49.770;18.760;2024-01-30T08:04:33;99367.81;;;2.91;68.35
75513;BME280;64090;49.770;18.760;2024-01-30T08:07:36;99370.14;;;3.00;68.53
75513;BME280;64090;49.770;18.760;2024-01-30T08:10:39;99367.68;;;3.10;68.50
75513;BME280;64090;49.770;18.760;2024-01-30T08:13:42;99367.59;;;3.15;68.32
75513;BME280;64090;49.770;18.760;2024-01-30T08:16:45;99368.07;;;3.18;67.27
75513;BME280;64090;49.770;18.760;2024-01-30T08:19:48;99362.75;;;3.23;67.37
75513;BME280;64090;49.770;18.760;2024-01-30T08:22:52;99365.98;;;3.29;67.16
75513;BME280;64090;49.770;18.760;2024-01-30T08:25:55;99363.95;;;3.37;66.61
75513;BME280;64090;49.770;18.760;2024-01-30T08:28:58;99363.89;;;3.47;66.76
75513;BME280;64090;49.770;18.760;2024-01-30T08:32:01;99363.43;;;3.57;66.30
75513;BME280;64090;49.770;18.760;2024-01-30T08:35:18;99371.86;;;3.73;66.46
75513;BME280;64090;49.770;18.760;2024-01-30T08:38:21;99375.91;;;3.86;66.42
75513;BME280;64090;49.770;18.760;2024-01-30T08:41:24;99371.52;;;4.00;66.15
75513;BME280;64090;49.770;18.760;2024-01-30T08:44:27;99372.45;;;4.12;65.61
75513;BME280;64090;49.770;18.760;2024-01-30T08:47:30;99373.09;;;4.21;65.10
75513;BME280;64090;49.770;18.760;2024-01-30T08:50:33;99375.67;;;4.28;64.51
75513;BME280;64090;49.770;18.760;2024-01-30T08:53:36;99375.44;;;4.36;64.12
75513;BME280;64090;49.770;18.760;2024-01-30T08:56:39;99374.50;;;4.45;64.23
75513;BME280;64090;49.770;18.760;2024-01-30T08:59:41;99372.77;;;4.53;63.53
75513;BME280;64090;49.770;18.760;2024-01-30T09:02:47;99368.56;;;4.60;62.99
75513;BME280;64090;49.770;18.760;2024-01-30T09:05:50;99363.64;;;4.68;63.19
75513;BME280;64090;49.770;18.760;2024-01-30T09:08:53;99362.36;;;4.75;63.09
75513;BME280;64090;49.770;18.760;2024-01-30T09:11:56;99365.09;;;4.83;63.53
75513;BME280;64090;49.770;18.760;2024-01-30T09:15:00;99365.41;;;4.93;63.48
75513;BME280;64090;49.770;18.760;2024-01-30T09:18:03;99365.16;;;5.03;63.02
75513;BME280;64090;49.770;18.760;2024-01-30T09:21:06;99368.68;;;5.13;62.92
75513;BME280;64090;49.770;18.760;2024-01-30T09:24:09;99375.73;;;5.23;62.53
75513;BME280;64090;49.770;18.760;2024-01-30T09:27:13;99374.10;;;5.32;62.12
75513;BME280;64090;49.770;18.760;2024-01-30T09:30:16;99373.50;;;5.39;61.68
75513;BME280;64090;49.770;18.760;2024-01-30T09:33:19;99369.47;;;5.49;61.61
75513;BME280;64090;49.770;18.760;2024-01-30T09:36:23;99367.47;;;5.56;61.82
75513;BME280;64090;49.770;18.760;2024-01-30T09:39:26;99362.81;;;5.61;61.59
75513;BME280;64090;49.770;18.760;2024-01-30T09:42:34;99364.11;;;5.64;60.86
75513;BME280;64090;49.770;18.760;2024-01-30T09:45:42;99365.02;;;5.70;60.89
75513;BME280;64090;49.770;18.760;2024-01-30T09:48:47;99363.65;;;5.76;61.01
75513;BME280;64090;49.770;18.760;2024-01-30T09:51:51;99358.33;;;5.82;60.69
75513;BME280;64090;49.770;18.760;2024-01-30T09:54:55;99354.94;;;5.89;60.23
75513;BME280;64090;49.770;18.760;2024-01-30T09:57:58;99356.64;;;5.94;59.95
75513;BME280;64090;49.770;18.760;2024-01-30T10:01:02;99356.99;;;6.02;59.72
75513;BME280;64090;49.770;18.760;2024-01-30T10:04:05;99359.66;;;6.07;59.19
75513;BME280;64090;49.770;18.760;2024-01-30T10:07:10;99355.69;;;6.11;58.03
75513;BME280;64090;49.770;18.760;2024-01-30T10:10:14;99353.02;;;6.13;57.35
75513;BME280;64090;49.770;18.760;2024-01-30T10:13:17;99352.38;;;6.16;58.30
75513;BME280;64090;49.770;18.760;2024-01-30T10:16:19;99353.17;;;6.25;58.61
75513;BME280;64090;49.770;18.760;2024-01-30T10:19:22;99348.02;;;6.32;57.82
75513;BME280;64090;49.770;18.760;2024-01-30T10:22:26;99345.98;;;6.37;58.12
75513;BME280;64090;49.770;18.760;2024-01-30T10:25:30;99341.64;;;6.44;58.79
75513;BME280;64090;49.770;18.760;2024-01-30T10:28:34;99346.46;;;6.50;58.35
75513;BME280;64090;49.770;18.760;2024-01-30T10:31:37;99339.12;;;6.60;58.63
75513;BME280;64090;49.770;18.760;2024-01-30T10:34:40;99330.84;;;6.69;58.71
75513;BME280;64090;49.770;18.760;2024-01-30T10:37:43;99328.33;;;6.77;58.05
75513;BME280;64090;49.770;18.760;2024-01-30T10:40:47;99326.27;;;6.85;57.76
75513;BME280;64090;49.770;18.760;2024-01-30T10:44:03;99324.54;;;6.88;56.12
75513;BME280;64090;49.770;18.760;2024-01-30T10:47:12;99324.33;;;6.92;56.47
75513;BME280;64090;49.770;18.760;2024-01-30T10:50:16;99326.73;;;6.95;56.27
75513;BME280;64090;49.770;18.760;2024-01-30T10:53:20;99322.20;;;7.00;55.68
75513;BME280;64090;49.770;18.760;2024-01-30T10:56:24;99319.80;;;7.01;55.66
75513;BME280;64090;49.770;18.760;2024-01-30T10:59:28;99314.52;;;7.01;54.63
75513;BME280;64090;49.770;18.760;2024-01-30T11:02:31;99314.33;;;7.00;54.17
75513;BME280;64090;49.770;18.760;2024-01-30T11:05:35;99306.58;;;7.03;54.78
75513;BME280;64090;49.770;18.760;2024-01-30T11:08:38;99301.11;;;7.05;54.04
75513;BME280;64090;49.770;18.760;2024-01-30T11:11:58;99296.33;;;7.07;53.94
75513;BME280;64090;49.770;18.760;2024-01-30T11:15:08;99294.00;;;7.11;54.90
75513;BME280;64090;49.770;18.760;2024-01-30T11:18:11;99290.63;;;7.15;55.35
75513;BME280;64090;49.770;18.760;2024-01-30T11:21:14;99292.20;;;7.20;55.65
75513;BME280;64090;49.770;18.760;2024-01-30T11:24:18;99290.77;;;7.20;54.01
75513;BME280;64090;49.770;18.760;2024-01-30T11:27:21;99284.80;;;7.17;54.27
75513;BME280;64090;49.770;18.760;2024-01-30T11:30:25;99278.48;;;7.17;54.41
75513;BME280;64090;49.770;18.760;2024-01-30T11:33:29;99277.70;;;7.18;54.58
75513;BME280;64090;49.770;18.760;2024-01-30T11:36:37;99277.33;;;7.20;55.15
75513;BME280;64090;49.770;18.760;2024-01-30T11:39:42;99269.73;;;7.24;54.84
75513;BME280;64090;49.770;18.760;2024-01-30T11:42:47;99270.73;;;7.28;53.59
75513;BME280;64090;49.770;18.760;2024-01-30T11:45:50;99266.35;;;7.30;53.13
75513;BME280;64090;49.770;18.760;2024-01-30T11:48:53;99267.00;;;7.32;53.31
75513;BME280;64090;49.770;18.760;2024-01-30T11:51:56;99260.14;;;7.34;52.44
75513;BME280;64090;49.770;18.760;2024-01-30T11:55:00;99254.92;;;7.31;52.64
75513;BME280;64090;49.770;18.760;2024-01-30T11:58:03;99257.39;;;7.33;53.60
75513;BME280;64090;49.770;18.760;2024-01-30T12:01:07;99251.94;;;7.36;53.75
75513;BME280;64090;49.770;18.760;2024-01-30T12:04:10;99250.08;;;7.37;53.29
75513;BME280;64090;49.770;18.760;2024-01-30T12:07:13;99245.45;;;7.38;53.52
75513;BME280;64090;49.770;18.760;2024-01-30T12:10:19;99244.97;;;7.39;53.42
75513;BME280;64090;49.770;18.760;2024-01-30T12:13:22;99239.34;;;7.41;52.64
75513;BME280;64090;49.770;18.760;2024-01-30T12:16:25;99232.04;;;7.40;52.34
75513;BME280;64090;49.770;18.760;2024-01-30T12:19:28;99230.80;;;7.42;52.29
75513;BME280;64090;49.770;18.760;2024-01-30T12:22:35;99226.23;;;7.42;50.57
75513;BME280;64090;49.770;18.760;2024-01-30T12:25:39;99222.77;;;7.46;51.35
75513;BME280;64090;49.770;18.760;2024-01-30T12:28:48;99220.53;;;7.46;50.58
75513;BME280;64090;49.770;18.760;2024-01-30T12:31:55;99215.70;;;7.45;50.50
75513;BME280;64090;49.770;18.760;2024-01-30T12:35:00;99218.64;;;7.45;51.19
75513;BME280;64090;49.770;18.760;2024-01-30T12:38:04;99215.75;;;7.44;50.31
75513;BME280;64090;49.770;18.760;2024-01-30T12:41:07;99211.55;;;7.44;50.26
75513;BME280;64090;49.770;18.760;2024-01-30T12:44:13;99211.69;;;7.44;50.80
75513;BME280;64090;49.770;18.760;2024-01-30T12:47:16;99209.81;;;7.42;49.67
75513;BME280;64090;49.770;18.760;2024-01-30T12:50:19;99205.93;;;7.38;49.48
75513;BME280;64090;49.770;18.760;2024-01-30T12:53:22;99202.20;;;7.35;48.57
75513;BME280;64090;49.770;18.760;2024-01-30T12:56:25;99205.25;;;7.36;49.28
75513;BME280;64090;49.770;18.760;2024-01-30T12:59:28;99203.42;;;7.35;49.43
75513;BME280;64090;49.770;18.760;2024-01-30T13:02:31;99205.39;;;7.34;50.11
75513;BME280;64090;49.770;18.760;2024-01-30T13:05:39;99202.70;;;7.33;49.89
75513;BME280;64090;49.770;18.760;2024-01-30T13:08:41;99198.27;;;7.30;48.93
75513;BME280;64090;49.770;18.760;2024-01-30T13:11:45;99198.36;;;7.27;48.43
75513;BME280;64090;49.770;18.760;2024-01-30T13:14:48;99196.79;;;7.27;49.20
75513;BME280;64090;49.770;18.760;2024-01-30T13:17:51;99195.21;;;7.25;49.29
75513;BME280;64090;49.770;18.760;2024-01-30T13:20:57;99200.31;;;7.21;48.80
75513;BME280;64090;49.770;18.760;2024-01-30T13:23:59;99196.58;;;7.18;48.99
75513;BME280;64090;49.770;18.760;2024-01-30T13:27:03;99198.49;;;7.19;49.81
75513;BME280;64090;49.770;18.760;2024-01-30T13:30:08;99195.27;;;7.17;49.60
75513;BME280;64090;49.770;18.760;2024-01-30T13:33:14;99191.45;;;7.14;49.14
75513;BME280;64090;49.770;18.760;2024-01-30T13:36:17;99193.95;;;7.12;49.73
75513;BME280;64090;49.770;18.760;2024-01-30T13:39:20;99193.42;;;7.10;49.65
75513;BME280;64090;49.770;18.760;2024-01-30T13:42:26;99194.13;;;7.07;49.59
75513;BME280;64090;49.770;18.760;2024-01-30T13:45:29;99195.73;;;7.03;50.12
75513;BME280;64090;49.770;18.760;2024-01-30T13:48:33;99191.08;;;6.98;50.39
75513;BME280;64090;49.770;18.760;2024-01-30T13:51:36;99194.67;;;6.95;50.10
75513;BME280;64090;49.770;18.760;2024-01-30T13:54:38;99188.08;;;6.90;49.62
75513;BME280;64090;49.770;18.760;2024-01-30T13:57:42;99191.39;;;6.89;49.41
75513;BME280;64090;49.770;18.760;2024-01-30T14:00:45;99186.11;;;6.87;49.19
75513;BME280;64090;49.770;18.760;2024-01-30T14:03:48;99183.56;;;6.84;49.10
75513;BME280;64090;49.770;18.760;2024-01-30T14:06:51;99182.32;;;6.83;49.60
75513;BME280;64090;49.770;18.760;2024-01-30T14:10:06;99179.41;;;6.74;49.64
75513;BME280;64090;49.770;18.760;2024-01-30T14:13:14;99175.66;;;6.71;49.48
75513;BME280;64090;49.770;18.760;2024-01-30T14:16:17;99175.51;;;6.67;49.69
75513;BME280;64090;49.770;18.760;2024-01-30T14:19:20;99173.41;;;6.61;49.52
75513;BME280;64090;49.770;18.760;2024-01-30T14:22:23;99175.44;;;6.55;49.63
75513;BME280;64090;49.770;18.760;2024-01-30T14:25:26;99177.02;;;6.47;49.82
75513;BME280;64090;49.770;18.760;2024-01-30T14:28:29;99167.84;;;6.36;50.03
75513;BME280;64090;49.770;18.760;2024-01-30T14:31:32;99167.16;;;6.28;50.08
75513;BME280;64090;49.770;18.760;2024-01-30T14:34:35;99169.45;;;6.19;50.00
75513;BME280;64090;49.770;18.760;2024-01-30T14:37:38;99168.18;;;6.11;50.13
75513;BME280;64090;49.770;18.760;2024-01-30T14:40:41;99171.61;;;6.05;50.56
75513;BME280;64090;49.770;18.760;2024-01-30T14:43:44;99167.84;;;5.98;50.72
75513;BME280;64090;49.770;18.760;2024-01-30T14:46:47;99176.80;;;5.88;51.39
75513;BME280;64090;49.770;18.760;2024-01-30T14:49:50;99172.98;;;5.79;51.62
75513;BME280;64090;49.770;18.760;2024-01-30T14:52:53;99170.00;;;5.68;51.45
75513;BME280;64090;49.770;18.760;2024-01-30T14:55:56;99170.27;;;5.61;51.75
75513;BME280;64090;49.770;18.760;2024-01-30T14:58:59;99179.08;;;5.53;52.24
75513;BME280;64090;49.770;18.760;2024-01-30T15:02:02;99178.27;;;5.44;52.30
75513;BME280;64090;49.770;18.760;2024-01-30T15:05:05;99176.60;;;5.35;52.70
75513;BME280;64090;49.770;18.760;2024-01-30T15:08:09;99181.30;;;5.26;52.50
75513;BME280;64090;49.770;18.760;2024-01-30T15:11:12;99174.02;;;5.19;52.76
75513;BME280;64090;49.770;18.760;2024-01-30T15:14:15;99175.16;;;5.12;53.12
75513;BME280;64090;49.770;18.760;2024-01-30T15:17:18;99176.23;;;5.05;53.05
75513;BME280;64090;49.770;18.760;2024-01-30T15:20:21;99177.23;;;4.98;53.25
75513;BME280;64090;49.770;18.760;2024-01-30T15:23:24;99171.79;;;4.92;53.38
75513;BME280;64090;49.770;18.760;2024-01-30T15:26:27;99176.55;;;4.84;53.71
75513;BME280;64090;49.770;18.760;2024-01-30T15:29:30;99178.13;;;4.78;53.66
75513;BME280;64090;49.770;18.760;2024-01-30T15:32:33;99172.23;;;4.68;54.22
75513;BME280;64090;49.770;18.760;2024-01-30T15:35:36;99171.74;;;4.64;54.28
75513;BME280;64090;49.770;18.760;2024-01-30T15:38:41;99178.05;;;4.62;54.12
75513;BME280;64090;49.770;18.760;2024-01-30T15:41:44;99178.53;;;4.56;54.54
75513;BME280;64090;49.770;18.760;2024-01-30T15:44:48;99175.85;;;4.49;54.73
75513;BME280;64090;49.770;18.760;2024-01-30T15:47:50;99174.27;;;4.43;55.09
75513;BME280;64090;49.770;18.760;2024-01-30T15:50:53;99173.11;;;4.33;55.55
75513;BME280;64090;49.770;18.760;2024-01-30T15:53:56;99170.88;;;4.22;55.73
75513;BME280;64090;49.770;18.760;2024-01-30T15:56:59;99164.91;;;4.12;56.21
75513;BME280;64090;49.770;18.760;2024-01-30T16:00:02;99168.73;;;4.06;56.26
75513;BME280;64090;49.770;18.760;2024-01-30T16:03:05;99174.40;;;4.01;56.59
75513;BME280;64090;49.770;18.760;2024-01-30T16:06:10;99174.17;;;3.89;57.23
75513;BME280;64090;49.770;18.760;2024-01-30T16:09:13;99174.35;;;3.77;57.44
75513;BME280;64090;49.770;18.760;2024-01-30T16:12:17;99170.30;;;3.77;57.18